sensor_id;sensor_type;location;lat;lon;timestamp;temperature;humidity
19330;DHT22;9799;48.214;16.388;2022-12-18T00:00:00;1.80;99.90
19330;DHT22;9799;48.214;16.388;2022-12-18T00:03:23;1.50;99.90
19330;DHT22;9799;48.214;16.388;2022-12-18T00:06:44;1.40;99.90
19330;DHT22;9799;48.214;16.388;2022-12-18T00:10:06;1.20;99.90
19330;DHT22;9799;48.214;16.388;2022-12-18T00:13:27;1.10;99.90
19330;DHT22;9799;48.214;16.388;2022-12-18T00:16:49;1.50;99.90
19330;DHT22;9799;48.214;16.388;2022-12-18T00:20:11;1.60;99.90
19330;DHT22;9799;48.214;16.388;2022-12-18T00:23:34;1.50;99.90
19330;DHT22;9799;48.214;16.388;2022-12-18T00:26:55;1.50;99.90
19330;DHT22;9799;48.214;16.388;2022-12-18T00:30:16;1.40;99.90
19330;DHT22;9799;48.214;16.388;2022-12-18T00:33:38;1.50;99.90
19330;DHT22;9799;48.214;16.388;2022-12-18T00:37:00;1.50;99.90
19330;DHT22;9799;48.214;16.388;2022-12-18T00:40:21;1.40;99.90
19330;DHT22;9799;48.214;16.388;2022-12-18T00:43:43;1.40;99.90
19330;DHT22;9799;48.214;16.388;2022-12-18T00:47:03;1.40;99.90
19330;DHT22;9799;48.214;16.388;2022-12-18T00:50:25;1.40;99.90
19330;DHT22;9799;48.214;16.388;2022-12-18T00:53:47;1.30;99.90
19330;DHT22;9799;48.214;16.388;2022-12-18T00:57:08;1.30;99.90
19330;DHT22;9799;48.214;16.388;2022-12-18T01:00:29;1.10;99.90
19330;DHT22;9799;48.214;16.388;2022-12-18T01:03:51;0.90;99.90
19330;DHT22;9799;48.214;16.388;2022-12-18T01:07:12;0.90;99.90
19330;DHT22;9799;48.214;16.388;2022-12-18T01:10:34;0.80;99.90
19330;DHT22;9799;48.214;16.388;2022-12-18T01:13:55;1.00;99.90
19330;DHT22;9799;48.214;16.388;2022-12-18T01:17:17;0.60;99.90
19330;DHT22;9799;48.214;16.388;2022-12-18T01:20:38;0.80;99.90
19330;DHT22;9799;48.214;16.388;2022-12-18T01:23:59;0.90;99.90
19330;DHT22;9799;48.214;16.388;2022-12-18T01:27:21;1.00;99.90
19330;DHT22;9799;48.214;16.388;2022-12-18T01:30:43;1.00;99.90
19330;DHT22;9799;48.214;16.388;2022-12-18T01:34:04;1.00;99.90
19330;DHT22;9799;48.214;16.388;2022-12-18T01:37:26;1.00;99.90
19330;DHT22;9799;48.214;16.388;2022-12-18T01:40:47;0.80;99.90
19330;DHT22;9799;48.214;16.388;2022-12-18T01:48:06;0.30;99.90
19330;DHT22;9799;48.214;16.388;2022-12-18T01:51:30;0.70;99.90
19330;DHT22;9799;48.214;16.388;2022-12-18T01:54:52;0.50;99.90
19330;DHT22;9799;48.214;16.388;2022-12-18T01:58:14;0.30;99.90
19330;DHT22;9799;48.214;16.388;2022-12-18T02:01:36;0.60;99.90
19330;DHT22;9799;48.214;16.388;2022-12-18T02:05:00;0.50;99.90
19330;DHT22;9799;48.214;16.388;2022-12-18T02:08:28;0.40;99.90
19330;DHT22;9799;48.214;16.388;2022-12-18T02:11:56;0.50;99.90
19330;DHT22;9799;48.214;16.388;2022-12-18T02:15:25;0.50;99.90
19330;DHT22;9799;48.214;16.388;2022-12-18T02:18:50;0.50;99.90
19330;DHT22;9799;48.214;16.388;2022-12-18T02:22:25;0.50;99.90
19330;DHT22;9799;48.214;16.388;2022-12-18T02:26:04;0.50;99.90
19330;DHT22;9799;48.214;16.388;2022-12-18T02:29:32;0.40;99.90
19330;DHT22;9799;48.214;16.388;2022-12-18T02:32:55;0.40;99.90
19330;DHT22;9799;48.214;16.388;2022-12-18T02:36:17;0.40;99.90
19330;DHT22;9799;48.214;16.388;2022-12-18T02:39:41;0.30;99.90
19330;DHT22;9799;48.214;16.388;2022-12-18T02:43:09;0.40;99.90
19330;DHT22;9799;48.214;16.388;2022-12-18T02:46:33;0.30;99.90
19330;DHT22;9799;48.214;16.388;2022-12-18T02:50:04;0.30;99.90
19330;DHT22;9799;48.214;16.388;2022-12-18T02:53:33;0.30;99.90
19330;DHT22;9799;48.214;16.388;2022-12-18T02:57:05;0.20;99.90
19330;DHT22;9799;48.214;16.388;2022-12-18T03:00:33;0.20;99.90
19330;DHT22;9799;48.214;16.388;2022-12-18T03:04:01;0.30;99.90
19330;DHT22;9799;48.214;16.388;2022-12-18T03:07:27;0.20;99.90
19330;DHT22;9799;48.214;16.388;2022-12-18T03:10:53;0.10;99.90
19330;DHT22;9799;48.214;16.388;2022-12-18T03:14:16;0.20;99.90
19330;DHT22;9799;48.214;16.388;2022-12-18T03:17:43;0.10;99.90
19330;DHT22;9799;48.214;16.388;2022-12-18T03:21:06;0.00;99.90
19330;DHT22;9799;48.214;16.388;2022-12-18T03:24:29;0.00;99.90
19330;DHT22;9799;48.214;16.388;2022-12-18T03:27:55;0.10;99.90
19330;DHT22;9799;48.214;16.388;2022-12-18T03:31:18;0.00;99.90
19330;DHT22;9799;48.214;16.388;2022-12-18T03:34:43;0.00;99.90
19330;DHT22;9799;48.214;16.388;2022-12-18T03:38:05;0.20;99.90
19330;DHT22;9799;48.214;16.388;2022-12-18T03:41:30;0.20;99.90
19330;DHT22;9799;48.214;16.388;2022-12-18T03:44:56;0.20;99.90
19330;DHT22;9799;48.214;16.388;2022-12-18T03:48:22;0.20;99.90
19330;DHT22;9799;48.214;16.388;2022-12-18T03:51:51;0.10;99.90
19330;DHT22;9799;48.214;16.388;2022-12-18T03:55:14;-0.10;99.90
19330;DHT22;9799;48.214;16.388;2022-12-18T03:58:37;-0.10;99.90
19330;DHT22;9799;48.214;16.388;2022-12-18T04:02:00;-0.30;99.90
19330;DHT22;9799;48.214;16.388;2022-12-18T04:05:23;-0.40;99.90
19330;DHT22;9799;48.214;16.388;2022-12-18T04:08:47;-0.20;99.90
19330;DHT22;9799;48.214;16.388;2022-12-18T04:12:09;0.00;99.90
19330;DHT22;9799;48.214;16.388;2022-12-18T04:15:32;0.10;99.90
19330;DHT22;9799;48.214;16.388;2022-12-18T04:18:55;0.00;99.90
19330;DHT22;9799;48.214;16.388;2022-12-18T04:22:16;0.10;99.90
19330;DHT22;9799;48.214;16.388;2022-12-18T04:25:39;0.10;99.90
19330;DHT22;9799;48.214;16.388;2022-12-18T04:29:00;0.10;99.90
19330;DHT22;9799;48.214;16.388;2022-12-18T04:32:21;0.00;99.90
19330;DHT22;9799;48.214;16.388;2022-12-18T04:35:43;-0.10;99.90
19330;DHT22;9799;48.214;16.388;2022-12-18T04:39:04;-0.10;99.90
19330;DHT22;9799;48.214;16.388;2022-12-18T04:42:26;0.10;99.90
19330;DHT22;9799;48.214;16.388;2022-12-18T04:45:47;0.00;99.90
19330;DHT22;9799;48.214;16.388;2022-12-18T04:49:09;-0.20;99.90
19330;DHT22;9799;48.214;16.388;2022-12-18T04:52:30;0.00;99.90
19330;DHT22;9799;48.214;16.388;2022-12-18T04:56:02;-0.10;99.90
19330;DHT22;9799;48.214;16.388;2022-12-18T04:59:25;-0.30;99.90
19330;DHT22;9799;48.214;16.388;2022-12-18T05:02:46;-0.30;99.90
19330;DHT22;9799;48.214;16.388;2022-12-18T05:06:07;-0.20;99.90
19330;DHT22;9799;48.214;16.388;2022-12-18T05:09:29;-0.40;99.90
19330;DHT22;9799;48.214;16.388;2022-12-18T05:12:50;-0.30;99.90
19330;DHT22;9799;48.214;16.388;2022-12-18T05:16:22;0.00;99.90
19330;DHT22;9799;48.214;16.388;2022-12-18T05:19:43;-0.10;99.90
19330;DHT22;9799;48.214;16.388;2022-12-18T05:23:04;0.00;99.90
19330;DHT22;9799;48.214;16.388;2022-12-18T05:26:25;0.00;99.90
19330;DHT22;9799;48.214;16.388;2022-12-18T05:29:47;0.00;99.90
19330;DHT22;9799;48.214;16.388;2022-12-18T05:33:09;0.10;99.90
19330;DHT22;9799;48.214;16.388;2022-12-18T05:36:30;0.10;99.90
19330;DHT22;9799;48.214;16.388;2022-12-18T05:39:52;0.10;99.90
19330;DHT22;9799;48.214;16.388;2022-12-18T05:43:13;0.20;99.90
19330;DHT22;9799;48.214;16.388;2022-12-18T05:46:34;0.20;99.90
19330;DHT22;9799;48.214;16.388;2022-12-18T05:49:57;0.30;99.90
19330;DHT22;9799;48.214;16.388;2022-12-18T05:53:19;0.30;99.90
19330;DHT22;9799;48.214;16.388;2022-12-18T05:56:41;0.10;99.90
19330;DHT22;9799;48.214;16.388;2022-12-18T06:00:03;-0.30;99.90
19330;DHT22;9799;48.214;16.388;2022-12-18T06:03:24;-0.50;99.90
19330;DHT22;9799;48.214;16.388;2022-12-18T06:06:47;-0.70;99.90
19330;DHT22;9799;48.214;16.388;2022-12-18T06:10:08;-0.70;99.90
19330;DHT22;9799;48.214;16.388;2022-12-18T06:13:30;-0.70;99.90
19330;DHT22;9799;48.214;16.388;2022-12-18T06:16:51;-0.60;99.90
19330;DHT22;9799;48.214;16.388;2022-12-18T06:20:12;-0.60;99.90
19330;DHT22;9799;48.214;16.388;2022-12-18T06:23:34;-0.60;99.90
19330;DHT22;9799;48.214;16.388;2022-12-18T06:26:56;-0.50;99.90
19330;DHT22;9799;48.214;16.388;2022-12-18T06:30:17;-0.20;99.90
19330;DHT22;9799;48.214;16.388;2022-12-18T06:33:39;-0.20;99.90
19330;DHT22;9799;48.214;16.388;2022-12-18T06:37:00;-0.20;99.90
19330;DHT22;9799;48.214;16.388;2022-12-18T06:40:23;-0.20;99.90
19330;DHT22;9799;48.214;16.388;2022-12-18T06:43:44;0.00;99.90
19330;DHT22;9799;48.214;16.388;2022-12-18T06:47:05;0.00;99.90
19330;DHT22;9799;48.214;16.388;2022-12-18T06:50:26;-0.30;99.90
19330;DHT22;9799;48.214;16.388;2022-12-18T06:53:48;-0.50;99.90
19330;DHT22;9799;48.214;16.388;2022-12-18T06:57:10;-0.60;99.90
19330;DHT22;9799;48.214;16.388;2022-12-18T07:00:32;-0.60;99.90
19330;DHT22;9799;48.214;16.388;2022-12-18T07:03:53;-0.70;99.90
19330;DHT22;9799;48.214;16.388;2022-12-18T07:07:15;-0.70;99.90
19330;DHT22;9799;48.214;16.388;2022-12-18T07:10:41;-0.50;99.90
19330;DHT22;9799;48.214;16.388;2022-12-18T07:14:04;-0.50;99.90
19330;DHT22;9799;48.214;16.388;2022-12-18T07:17:25;-0.70;99.90
19330;DHT22;9799;48.214;16.388;2022-12-18T07:20:46;-0.50;99.90
19330;DHT22;9799;48.214;16.388;2022-12-18T07:24:07;-0.40;99.90
19330;DHT22;9799;48.214;16.388;2022-12-18T07:27:28;-0.30;99.90
19330;DHT22;9799;48.214;16.388;2022-12-18T07:30:51;-0.60;99.90
19330;DHT22;9799;48.214;16.388;2022-12-18T07:34:13;-0.50;99.90
19330;DHT22;9799;48.214;16.388;2022-12-18T07:37:34;-0.40;99.90
19330;DHT22;9799;48.214;16.388;2022-12-18T07:41:00;-0.30;99.90
19330;DHT22;9799;48.214;16.388;2022-12-18T07:44:21;-0.30;99.90
19330;DHT22;9799;48.214;16.388;2022-12-18T07:47:44;-0.90;99.90
19330;DHT22;9799;48.214;16.388;2022-12-18T07:51:06;-0.80;99.90
19330;DHT22;9799;48.214;16.388;2022-12-18T07:54:28;-0.60;99.90
19330;DHT22;9799;48.214;16.388;2022-12-18T07:57:49;-0.90;99.90
19330;DHT22;9799;48.214;16.388;2022-12-18T08:01:11;-1.00;99.90
19330;DHT22;9799;48.214;16.388;2022-12-18T08:04:37;-0.60;99.90
19330;DHT22;9799;48.214;16.388;2022-12-18T08:07:58;-0.70;99.90
19330;DHT22;9799;48.214;16.388;2022-12-18T08:11:19;-0.50;99.90
19330;DHT22;9799;48.214;16.388;2022-12-18T08:14:40;-0.50;99.90
19330;DHT22;9799;48.214;16.388;2022-12-18T08:18:01;-0.60;99.90
19330;DHT22;9799;48.214;16.388;2022-12-18T08:21:26;-0.50;99.90
19330;DHT22;9799;48.214;16.388;2022-12-18T08:24:47;-0.50;99.90
19330;DHT22;9799;48.214;16.388;2022-12-18T08:28:09;-0.40;99.90
19330;DHT22;9799;48.214;16.388;2022-12-18T08:31:30;-0.60;99.90
19330;DHT22;9799;48.214;16.388;2022-12-18T08:34:52;-0.60;99.90
19330;DHT22;9799;48.214;16.388;2022-12-18T08:38:15;-0.50;99.90
19330;DHT22;9799;48.214;16.388;2022-12-18T08:41:36;-0.40;99.90
19330;DHT22;9799;48.214;16.388;2022-12-18T08:44:57;-0.20;99.90
19330;DHT22;9799;48.214;16.388;2022-12-18T08:48:17;-0.30;99.90
19330;DHT22;9799;48.214;16.388;2022-12-18T08:51:38;-0.40;99.90
19330;DHT22;9799;48.214;16.388;2022-12-18T08:55:01;-0.50;99.90
19330;DHT22;9799;48.214;16.388;2022-12-18T08:58:22;-0.40;99.90
19330;DHT22;9799;48.214;16.388;2022-12-18T09:01:44;-0.40;99.90
19330;DHT22;9799;48.214;16.388;2022-12-18T09:05:05;-0.50;99.90
19330;DHT22;9799;48.214;16.388;2022-12-18T09:08:27;-0.40;99.90
19330;DHT22;9799;48.214;16.388;2022-12-18T09:11:50;-0.30;99.90
19330;DHT22;9799;48.214;16.388;2022-12-18T09:15:11;-0.30;99.90
19330;DHT22;9799;48.214;16.388;2022-12-18T09:18:32;-0.60;99.90
19330;DHT22;9799;48.214;16.388;2022-12-18T09:21:53;-0.70;99.90
19330;DHT22;9799;48.214;16.388;2022-12-18T09:25:14;-0.60;99.90
19330;DHT22;9799;48.214;16.388;2022-12-18T09:28:37;-0.40;99.90
19330;DHT22;9799;48.214;16.388;2022-12-18T09:31:58;-0.10;99.90
19330;DHT22;9799;48.214;16.388;2022-12-18T09:35:19;0.00;99.90
19330;DHT22;9799;48.214;16.388;2022-12-18T09:38:41;0.20;99.90
19330;DHT22;9799;48.214;16.388;2022-12-18T09:42:02;-0.30;99.90
19330;DHT22;9799;48.214;16.388;2022-12-18T09:45:25;-0.50;99.90
19330;DHT22;9799;48.214;16.388;2022-12-18T09:48:49;-0.50;99.90
19330;DHT22;9799;48.214;16.388;2022-12-18T09:52:16;-0.20;99.90
19330;DHT22;9799;48.214;16.388;2022-12-18T09:55:42;-0.30;99.90
19330;DHT22;9799;48.214;16.388;2022-12-18T09:59:04;-0.50;99.90
19330;DHT22;9799;48.214;16.388;2022-12-18T10:02:30;-0.50;99.90
19330;DHT22;9799;48.214;16.388;2022-12-18T10:06:00;-0.50;99.90
19330;DHT22;9799;48.214;16.388;2022-12-18T10:09:28;-0.40;99.90
19330;DHT22;9799;48.214;16.388;2022-12-18T10:12:58;-0.20;99.90
19330;DHT22;9799;48.214;16.388;2022-12-18T10:16:26;-0.20;99.90
19330;DHT22;9799;48.214;16.388;2022-12-18T10:19:54;0.10;99.90
19330;DHT22;9799;48.214;16.388;2022-12-18T10:23:21;0.20;99.90
19330;DHT22;9799;48.214;16.388;2022-12-18T10:26:52;-0.20;99.90
19330;DHT22;9799;48.214;16.388;2022-12-18T10:30:16;-0.60;99.90
19330;DHT22;9799;48.214;16.388;2022-12-18T10:33:38;-0.70;99.90
19330;DHT22;9799;48.214;16.388;2022-12-18T10:37:06;-0.30;99.90
19330;DHT22;9799;48.214;16.388;2022-12-18T10:40:48;0.00;99.90
19330;DHT22;9799;48.214;16.388;2022-12-18T10:44:14;0.20;99.90
19330;DHT22;9799;48.214;16.388;2022-12-18T10:47:37;0.00;99.90
19330;DHT22;9799;48.214;16.388;2022-12-18T10:51:03;0.10;99.90
19330;DHT22;9799;48.214;16.388;2022-12-18T10:54:26;0.30;99.90
19330;DHT22;9799;48.214;16.388;2022-12-18T10:57:48;0.00;99.90
19330;DHT22;9799;48.214;16.388;2022-12-18T11:01:11;-0.50;99.90
19330;DHT22;9799;48.214;16.388;2022-12-18T11:04:33;-0.40;99.90
19330;DHT22;9799;48.214;16.388;2022-12-18T11:07:55;-0.20;99.90
19330;DHT22;9799;48.214;16.388;2022-12-18T11:11:20;0.00;99.90
19330;DHT22;9799;48.214;16.388;2022-12-18T11:14:43;0.00;99.90
19330;DHT22;9799;48.214;16.388;2022-12-18T11:18:15;-0.30;99.90
19330;DHT22;9799;48.214;16.388;2022-12-18T11:21:39;-0.50;99.90
19330;DHT22;9799;48.214;16.388;2022-12-18T11:25:04;-0.50;99.90
19330;DHT22;9799;48.214;16.388;2022-12-18T11:28:36;-0.50;99.90
19330;DHT22;9799;48.214;16.388;2022-12-18T11:36:02;-0.30;99.90
19330;DHT22;9799;48.214;16.388;2022-12-18T11:39:30;-0.40;99.90
19330;DHT22;9799;48.214;16.388;2022-12-18T11:42:57;-0.40;99.90
19330;DHT22;9799;48.214;16.388;2022-12-18T11:46:26;-0.10;99.90
19330;DHT22;9799;48.214;16.388;2022-12-18T11:49:52;-0.20;99.90
19330;DHT22;9799;48.214;16.388;2022-12-18T11:53:13;-0.10;99.90
19330;DHT22;9799;48.214;16.388;2022-12-18T11:56:36;-0.10;99.90
19330;DHT22;9799;48.214;16.388;2022-12-18T12:00:02;-0.30;99.90
19330;DHT22;9799;48.214;16.388;2022-12-18T12:03:39;-0.30;99.90
19330;DHT22;9799;48.214;16.388;2022-12-18T12:07:23;0.00;99.90
19330;DHT22;9799;48.214;16.388;2022-12-18T12:10:53;-0.20;99.90
19330;DHT22;9799;48.214;16.388;2022-12-18T12:14:37;-0.20;99.90
19330;DHT22;9799;48.214;16.388;2022-12-18T12:18:08;-0.10;99.90
19330;DHT22;9799;48.214;16.388;2022-12-18T12:21:39;0.00;99.90
19330;DHT22;9799;48.214;16.388;2022-12-18T12:25:17;0.10;99.90
19330;DHT22;9799;48.214;16.388;2022-12-18T12:29:06;0.10;99.90
19330;DHT22;9799;48.214;16.388;2022-12-18T12:32:44;-0.10;99.90
19330;DHT22;9799;48.214;16.388;2022-12-18T12:36:14;-0.30;99.90
19330;DHT22;9799;48.214;16.388;2022-12-18T12:39:40;-0.20;99.90
19330;DHT22;9799;48.214;16.388;2022-12-18T12:43:10;-0.20;99.90
19330;DHT22;9799;48.214;16.388;2022-12-18T12:46:39;-0.10;99.90
19330;DHT22;9799;48.214;16.388;2022-12-18T12:50:04;-0.10;99.90
19330;DHT22;9799;48.214;16.388;2022-12-18T12:53:29;0.10;99.90
19330;DHT22;9799;48.214;16.388;2022-12-18T12:56:56;-0.30;99.90
19330;DHT22;9799;48.214;16.388;2022-12-18T13:00:19;-0.20;99.90
19330;DHT22;9799;48.214;16.388;2022-12-18T13:03:46;0.20;99.90
19330;DHT22;9799;48.214;16.388;2022-12-18T13:07:15;0.10;99.90
19330;DHT22;9799;48.214;16.388;2022-12-18T13:10:38;0.20;99.90
19330;DHT22;9799;48.214;16.388;2022-12-18T13:14:01;0.10;99.90
19330;DHT22;9799;48.214;16.388;2022-12-18T13:17:27;0.10;99.90
19330;DHT22;9799;48.214;16.388;2022-12-18T13:21:01;0.10;99.90
19330;DHT22;9799;48.214;16.388;2022-12-18T13:24:26;0.30;99.90
19330;DHT22;9799;48.214;16.388;2022-12-18T13:28:07;0.40;99.90
19330;DHT22;9799;48.214;16.388;2022-12-18T13:35:40;0.00;99.90
19330;DHT22;9799;48.214;16.388;2022-12-18T13:39:32;-0.20;99.90
19330;DHT22;9799;48.214;16.388;2022-12-18T13:42:54;-0.20;99.90
19330;DHT22;9799;48.214;16.388;2022-12-18T13:46:43;-0.20;99.90
19330;DHT22;9799;48.214;16.388;2022-12-18T13:50:11;-0.30;99.90
19330;DHT22;9799;48.214;16.388;2022-12-18T13:53:48;-0.20;99.90
19330;DHT22;9799;48.214;16.388;2022-12-18T13:57:26;0.10;99.90
19330;DHT22;9799;48.214;16.388;2022-12-18T14:00:48;-0.10;99.90
19330;DHT22;9799;48.214;16.388;2022-12-18T14:04:10;0.00;99.90
19330;DHT22;9799;48.214;16.388;2022-12-18T14:07:32;0.00;99.90
19330;DHT22;9799;48.214;16.388;2022-12-18T14:10:55;-0.20;99.90
19330;DHT22;9799;48.214;16.388;2022-12-18T14:14:17;-0.30;99.90
19330;DHT22;9799;48.214;16.388;2022-12-18T14:17:39;-0.30;99.90
19330;DHT22;9799;48.214;16.388;2022-12-18T14:21:02;-0.30;99.90
19330;DHT22;9799;48.214;16.388;2022-12-18T14:24:24;-0.20;99.90
19330;DHT22;9799;48.214;16.388;2022-12-18T14:27:49;-0.20;99.90
19330;DHT22;9799;48.214;16.388;2022-12-18T14:31:17;-0.30;99.90
19330;DHT22;9799;48.214;16.388;2022-12-18T14:34:39;-0.30;99.90
19330;DHT22;9799;48.214;16.388;2022-12-18T14:38:16;-0.20;99.90
19330;DHT22;9799;48.214;16.388;2022-12-18T14:41:40;-0.30;99.90
19330;DHT22;9799;48.214;16.388;2022-12-18T14:45:35;-0.30;99.90
19330;DHT22;9799;48.214;16.388;2022-12-18T14:48:57;-0.40;99.90
19330;DHT22;9799;48.214;16.388;2022-12-18T14:52:22;-0.30;99.90
19330;DHT22;9799;48.214;16.388;2022-12-18T14:55:46;-0.40;99.90
19330;DHT22;9799;48.214;16.388;2022-12-18T14:59:14;-0.10;99.90
19330;DHT22;9799;48.214;16.388;2022-12-18T15:02:38;-0.20;99.90
19330;DHT22;9799;48.214;16.388;2022-12-18T15:06:15;-0.20;99.90
19330;DHT22;9799;48.214;16.388;2022-12-18T15:09:37;-0.20;99.90
19330;DHT22;9799;48.214;16.388;2022-12-18T15:13:21;-0.10;99.90
19330;DHT22;9799;48.214;16.388;2022-12-18T15:16:43;0.00;99.90
19330;DHT22;9799;48.214;16.388;2022-12-18T15:20:11;-0.20;99.90
19330;DHT22;9799;48.214;16.388;2022-12-18T15:23:37;-0.20;99.90
19330;DHT22;9799;48.214;16.388;2022-12-18T15:27:00;-0.30;99.90
19330;DHT22;9799;48.214;16.388;2022-12-18T15:30:23;-0.20;99.90
19330;DHT22;9799;48.214;16.388;2022-12-18T15:34:00;-0.20;99.90
19330;DHT22;9799;48.214;16.388;2022-12-18T15:37:25;-0.20;99.90
19330;DHT22;9799;48.214;16.388;2022-12-18T15:40:48;0.10;99.90
19330;DHT22;9799;48.214;16.388;2022-12-18T15:44:22;0.10;99.90
19330;DHT22;9799;48.214;16.388;2022-12-18T15:47:44;0.00;99.90
19330;DHT22;9799;48.214;16.388;2022-12-18T15:51:13;-0.10;99.90
19330;DHT22;9799;48.214;16.388;2022-12-18T15:54:38;-0.10;99.90
19330;DHT22;9799;48.214;16.388;2022-12-18T15:58:17;0.20;99.90
19330;DHT22;9799;48.214;16.388;2022-12-18T16:01:41;0.10;99.90
19330;DHT22;9799;48.214;16.388;2022-12-18T16:05:05;0.10;99.90
19330;DHT22;9799;48.214;16.388;2022-12-18T16:08:32;-0.10;99.90
19330;DHT22;9799;48.214;16.388;2022-12-18T16:11:55;-0.10;99.90
19330;DHT22;9799;48.214;16.388;2022-12-18T16:15:17;-0.10;99.90
19330;DHT22;9799;48.214;16.388;2022-12-18T16:18:39;-0.10;99.90
19330;DHT22;9799;48.214;16.388;2022-12-18T16:22:01;0.00;99.90
19330;DHT22;9799;48.214;16.388;2022-12-18T16:25:25;0.00;99.90
19330;DHT22;9799;48.214;16.388;2022-12-18T16:28:48;0.00;99.90
19330;DHT22;9799;48.214;16.388;2022-12-18T16:32:13;0.10;99.90
19330;DHT22;9799;48.214;16.388;2022-12-18T16:35:35;0.00;99.90
19330;DHT22;9799;48.214;16.388;2022-12-18T16:38:57;-0.10;99.90
19330;DHT22;9799;48.214;16.388;2022-12-18T16:42:20;-0.30;99.90
19330;DHT22;9799;48.214;16.388;2022-12-18T16:45:43;-0.10;99.90
19330;DHT22;9799;48.214;16.388;2022-12-18T16:49:06;0.00;99.90
19330;DHT22;9799;48.214;16.388;2022-12-18T16:52:28;0.20;99.90
19330;DHT22;9799;48.214;16.388;2022-12-18T16:55:54;0.10;99.90
19330;DHT22;9799;48.214;16.388;2022-12-18T16:59:17;-0.20;99.90
19330;DHT22;9799;48.214;16.388;2022-12-18T17:02:42;-0.20;99.90
19330;DHT22;9799;48.214;16.388;2022-12-18T17:06:06;-0.10;99.90
19330;DHT22;9799;48.214;16.388;2022-12-18T17:09:30;-0.10;99.90
19330;DHT22;9799;48.214;16.388;2022-12-18T17:12:52;0.00;99.90
19330;DHT22;9799;48.214;16.388;2022-12-18T17:16:14;0.10;99.90
19330;DHT22;9799;48.214;16.388;2022-12-18T17:19:38;0.10;99.90
19330;DHT22;9799;48.214;16.388;2022-12-18T17:23:00;0.30;99.90
19330;DHT22;9799;48.214;16.388;2022-12-18T17:26:22;0.20;99.90
19330;DHT22;9799;48.214;16.388;2022-12-18T17:29:45;0.10;99.90
19330;DHT22;9799;48.214;16.388;2022-12-18T17:33:07;0.00;99.90
19330;DHT22;9799;48.214;16.388;2022-12-18T17:36:31;0.00;99.90
19330;DHT22;9799;48.214;16.388;2022-12-18T17:39:53;0.00;99.90
19330;DHT22;9799;48.214;16.388;2022-12-18T17:43:17;0.10;99.90
19330;DHT22;9799;48.214;16.388;2022-12-18T17:46:38;0.10;99.90
19330;DHT22;9799;48.214;16.388;2022-12-18T17:50:01;0.30;99.90
19330;DHT22;9799;48.214;16.388;2022-12-18T17:53:33;0.20;99.90
19330;DHT22;9799;48.214;16.388;2022-12-18T17:56:55;0.30;99.90
19330;DHT22;9799;48.214;16.388;2022-12-18T18:00:18;0.30;99.90
19330;DHT22;9799;48.214;16.388;2022-12-18T18:03:41;0.00;99.90
19330;DHT22;9799;48.214;16.388;2022-12-18T18:07:03;-0.10;99.90
19330;DHT22;9799;48.214;16.388;2022-12-18T18:10:26;-0.10;99.90
19330;DHT22;9799;48.214;16.388;2022-12-18T18:13:49;0.00;99.90
19330;DHT22;9799;48.214;16.388;2022-12-18T18:17:22;0.20;99.90
19330;DHT22;9799;48.214;16.388;2022-12-18T18:20:45;0.40;99.90
19330;DHT22;9799;48.214;16.388;2022-12-18T18:24:11;0.30;99.90
19330;DHT22;9799;48.214;16.388;2022-12-18T18:27:34;0.50;99.90
19330;DHT22;9799;48.214;16.388;2022-12-18T18:30:56;0.50;99.90
19330;DHT22;9799;48.214;16.388;2022-12-18T18:34:20;0.30;99.90
19330;DHT22;9799;48.214;16.388;2022-12-18T18:37:47;0.20;99.90
19330;DHT22;9799;48.214;16.388;2022-12-18T18:41:09;0.10;99.90
19330;DHT22;9799;48.214;16.388;2022-12-18T18:44:34;0.10;99.90
19330;DHT22;9799;48.214;16.388;2022-12-18T18:47:56;0.30;99.90
19330;DHT22;9799;48.214;16.388;2022-12-18T18:51:18;0.20;99.90
19330;DHT22;9799;48.214;16.388;2022-12-18T18:54:40;0.20;99.90
19330;DHT22;9799;48.214;16.388;2022-12-18T18:58:02;0.20;99.90
19330;DHT22;9799;48.214;16.388;2022-12-18T19:01:27;0.20;99.90
19330;DHT22;9799;48.214;16.388;2022-12-18T19:04:49;0.20;99.90
19330;DHT22;9799;48.214;16.388;2022-12-18T19:08:11;0.10;99.90
19330;DHT22;9799;48.214;16.388;2022-12-18T19:11:33;0.20;99.90
19330;DHT22;9799;48.214;16.388;2022-12-18T19:15:12;0.30;99.90
19330;DHT22;9799;48.214;16.388;2022-12-18T19:18:35;0.30;99.90
19330;DHT22;9799;48.214;16.388;2022-12-18T19:21:58;0.40;99.90
19330;DHT22;9799;48.214;16.388;2022-12-18T19:25:20;0.40;99.90
19330;DHT22;9799;48.214;16.388;2022-12-18T19:28:41;0.30;99.90
19330;DHT22;9799;48.214;16.388;2022-12-18T19:32:04;0.40;99.90
19330;DHT22;9799;48.214;16.388;2022-12-18T19:35:29;0.40;99.90
19330;DHT22;9799;48.214;16.388;2022-12-18T19:38:53;0.40;99.90
19330;DHT22;9799;48.214;16.388;2022-12-18T19:42:15;0.60;99.90
19330;DHT22;9799;48.214;16.388;2022-12-18T19:45:37;0.60;99.90
19330;DHT22;9799;48.214;16.388;2022-12-18T19:49:01;0.40;99.90
19330;DHT22;9799;48.214;16.388;2022-12-18T19:52:29;0.50;99.90
19330;DHT22;9799;48.214;16.388;2022-12-18T19:55:51;0.50;99.90
19330;DHT22;9799;48.214;16.388;2022-12-18T19:59:13;0.50;99.90
19330;DHT22;9799;48.214;16.388;2022-12-18T20:02:35;0.60;99.90
19330;DHT22;9799;48.214;16.388;2022-12-18T20:06:07;0.60;99.90
19330;DHT22;9799;48.214;16.388;2022-12-18T20:09:32;0.60;99.90
19330;DHT22;9799;48.214;16.388;2022-12-18T20:12:55;0.60;99.90
19330;DHT22;9799;48.214;16.388;2022-12-18T20:16:27;0.60;99.90
19330;DHT22;9799;48.214;16.388;2022-12-18T20:19:48;0.60;99.90
19330;DHT22;9799;48.214;16.388;2022-12-18T20:23:13;0.60;99.90
19330;DHT22;9799;48.214;16.388;2022-12-18T20:26:36;0.50;99.90
19330;DHT22;9799;48.214;16.388;2022-12-18T20:29:57;0.60;99.90
19330;DHT22;9799;48.214;16.388;2022-12-18T20:33:20;0.60;99.90
19330;DHT22;9799;48.214;16.388;2022-12-18T20:36:41;0.60;99.90
19330;DHT22;9799;48.214;16.388;2022-12-18T20:40:05;0.50;99.90
19330;DHT22;9799;48.214;16.388;2022-12-18T20:43:28;0.50;99.90
19330;DHT22;9799;48.214;16.388;2022-12-18T20:46:52;0.50;99.90
19330;DHT22;9799;48.214;16.388;2022-12-18T20:50:14;0.50;99.90
19330;DHT22;9799;48.214;16.388;2022-12-18T20:53:37;0.50;99.90
19330;DHT22;9799;48.214;16.388;2022-12-18T20:56:59;0.60;99.90
19330;DHT22;9799;48.214;16.388;2022-12-18T21:00:22;0.60;99.90
19330;DHT22;9799;48.214;16.388;2022-12-18T21:03:44;0.50;99.90
19330;DHT22;9799;48.214;16.388;2022-12-18T21:07:06;0.50;99.90
19330;DHT22;9799;48.214;16.388;2022-12-18T21:10:28;0.50;99.90
19330;DHT22;9799;48.214;16.388;2022-12-18T21:13:49;0.60;99.90
19330;DHT22;9799;48.214;16.388;2022-12-18T21:17:12;0.50;99.90
19330;DHT22;9799;48.214;16.388;2022-12-18T21:20:33;0.70;99.90
19330;DHT22;9799;48.214;16.388;2022-12-18T21:23:54;0.60;99.90
19330;DHT22;9799;48.214;16.388;2022-12-18T21:27:15;0.60;99.90
19330;DHT22;9799;48.214;16.388;2022-12-18T21:30:37;0.70;99.90
19330;DHT22;9799;48.214;16.388;2022-12-18T21:34:00;0.70;99.90
19330;DHT22;9799;48.214;16.388;2022-12-18T21:37:22;0.50;99.90
19330;DHT22;9799;48.214;16.388;2022-12-18T21:40:43;0.40;99.90
19330;DHT22;9799;48.214;16.388;2022-12-18T21:44:04;0.40;99.90
19330;DHT22;9799;48.214;16.388;2022-12-18T21:47:25;0.50;99.90
19330;DHT22;9799;48.214;16.388;2022-12-18T21:50:48;0.40;99.90
19330;DHT22;9799;48.214;16.388;2022-12-18T21:54:09;0.40;99.90